Terminal Aerodrome Forecast
Issued by NWS

Home | Current Version | Previous Version | Text Only | Print | Product List | Glossary On
Versions: 1 2 3 4 5 6 7 8 9 10 11 12 13 14 15
000
FTUS42 KTBW 311133
TAFLAL
TAF
KLAL 311133Z 3112/0112 16007KT 6SM -RA FEW007 SCT020 OVC070
     FM311500 18011G16KT P6SM VCSH BKN020 OVC050
     FM311800 20011G18KT 6SM RA VCTS SCT025CB OVC050
     FM010000 17011KT 6SM -RA SCT005 OVC025
     FM010600 17007KT P6SM VCSH SCT008 BKN020 OVC060=

USA.gov is the U.S. government's official web portal to all federal, state and local government web resources and services.